Time;durP1;ratioP1;P1;durP2;ratioP2;P2;SDS_P1;SDS_P2;PMS_P1;PMS_P2;Temp;Humidity;BMP_temperature;BMP_pressure;BME280_temperature;BME280_humidity;BME280_pressure;Samples;Min_cycle;Max_cycle;Signal;HPM_P1;HPM_P2
2020/12/20 00:01:44;;;;;;;27.63;21.55;;;6.30;99.90;;;;;;5112776;28;20211;-81
2020/12/20 00:04:11;;;;;;;25.90;19.98;;;6.40;99.90;;;;;;5102310;28;20230;-80
2020/12/20 00:06:39;;;;;;;26.17;21.23;;;6.40;99.90;;;;;;5095166;28;20204;-79
2020/12/20 00:09:09;;;;;;;26.67;20.92;;;6.50;99.90;;;;;;5095508;28;20710;-78
2020/12/20 00:11:40;;;;;;;27.10;20.58;;;6.60;99.90;;;;;;5094312;28;20270;-80
2020/12/20 00:16:48;;;;;;;31.83;21.02;;;6.70;99.90;;;;;;5094798;28;20289;-80
2020/12/20 00:19:14;;;;;;;26.38;20.73;;;6.70;99.90;;;;;;5094803;28;20234;-79
2020/12/20 00:21:41;;;;;;;26.25;21.80;;;6.60;99.50;;;;;;5094147;28;20641;-80
2020/12/20 00:24:10;;;;;;;28.33;21.83;;;6.70;99.10;;;;;;5094438;28;20256;-80
2020/12/20 00:26:37;;;;;;;28.23;22.05;;;6.60;99.10;;;;;;5099143;28;20707;-80
2020/12/20 00:29:04;;;;;;;23.75;19.52;;;6.50;99.20;;;;;;5100933;28;20257;-80
2020/12/20 00:31:31;;;;;;;25.60;21.10;;;6.50;99.20;;;;;;5101098;28;20548;-80
2020/12/20 00:33:57;;;;;;;26.17;21.27;;;6.50;99.50;;;;;;5109963;28;20202;-81
2020/12/20 00:36:24;;;;;;;27.27;22.40;;;6.40;99.90;;;;;;5116531;28;20193;-83
2020/12/20 00:38:50;;;;;;;28.40;22.85;;;6.40;99.90;;;;;;5111670;28;20233;-80
2020/12/20 00:41:18;;;;;;;28.25;20.75;;;6.40;99.90;;;;;;5103867;28;20258;-81
2020/12/20 00:43:45;;;;;;;26.38;21.65;;;6.40;99.90;;;;;;5109572;28;20223;-81
2020/12/20 00:46:11;;;;;;;31.08;23.23;;;6.40;99.90;;;;;;5112068;28;20574;-80
2020/12/20 00:48:38;;;;;;;26.40;21.77;;;6.40;99.90;;;;;;5103985;28;20270;-80
2020/12/20 00:51:05;;;;;;;27.95;22.45;;;6.40;99.90;;;;;;5112217;28;20206;-81
2020/12/20 00:53:32;;;;;;;26.80;21.95;;;6.20;99.90;;;;;;5109249;28;20217;-80
2020/12/20 00:55:59;;;;;;;28.63;22.73;;;6.30;99.90;;;;;;5105151;28;20216;-80
2020/12/20 00:58:26;;;;;;;28.17;21.75;;;6.20;99.90;;;;;;5105103;28;20225;-82
2020/12/20 01:00:52;;;;;;;25.50;21.50;;;6.20;99.90;;;;;;5109913;28;20194;-81
2020/12/20 01:03:19;;;;;;;29.08;23.23;;;6.20;99.90;;;;;;5106582;28;20235;-80
2020/12/20 01:05:46;;;;;;;28.08;21.95;;;6.20;99.90;;;;;;5105495;28;20217;-80
2020/12/20 01:08:12;;;;;;;23.40;20.80;;;6.20;99.90;;;;;;5107691;28;20207;-81
2020/12/20 01:10:40;;;;;;;28.00;22.90;;;6.30;99.90;;;;;;5106648;28;20226;-81
2020/12/20 01:13:06;;;;;;;29.33;23.80;;;6.30;99.90;;;;;;5106532;28;20211;-80
2020/12/20 01:15:33;;;;;;;31.88;22.77;;;6.30;99.90;;;;;;5106984;28;20230;-80
2020/12/20 01:18:00;;;;;;;25.70;21.00;;;6.40;99.90;;;;;;5114052;28;20201;-80
2020/12/20 01:20:26;;;;;;;25.75;21.05;;;6.50;99.90;;;;;;5116705;28;20236;-81
2020/12/20 01:22:53;;;;;;;24.67;20.95;;;6.50;99.90;;;;;;5116573;28;20611;-80
2020/12/20 01:25:19;;;;;;;26.45;21.48;;;6.40;99.90;;;;;;5111126;28;20207;-81
2020/12/20 01:27:46;;;;;;;28.50;23.00;;;6.50;99.90;;;;;;5112879;28;20202;-80
2020/12/20 01:30:12;;;;;;;27.88;22.02;;;6.40;99.50;;;;;;5114203;28;20219;-80
2020/12/20 01:32:39;;;;;;;27.10;21.98;;;6.30;99.70;;;;;;5114861;28;20200;-80
2020/12/20 01:35:06;;;;;;;28.58;22.98;;;6.20;99.90;;;;;;5114409;28;20208;-82
2020/12/20 01:37:33;;;;;;;30.15;22.05;;;6.30;99.90;;;;;;5112239;28;20216;-81
2020/12/20 01:40:00;;;;;;;24.13;19.13;;;6.40;99.90;;;;;;5112953;28;20636;-80
2020/12/20 01:42:26;;;;;;;26.65;21.52;;;6.30;99.90;;;;;;5111202;28;20207;-78
2020/12/20 01:44:52;;;;;;;23.58;20.13;;;6.30;99.90;;;;;;5111819;28;20222;-80
2020/12/20 01:47:19;;;;;;;26.30;20.20;;;6.40;99.90;;;;;;5107332;28;20209;-80
2020/12/20 01:49:47;;;;;;;24.23;20.45;;;6.50;99.90;;;;;;5114649;28;20282;-82
2020/12/20 01:52:15;;;;;;;25.92;20.30;;;6.50;99.90;;;;;;5115604;28;20201;-81
2020/12/20 01:54:45;;;;;;;21.27;18.25;;;6.40;99.90;;;;;;5108705;28;20222;-79
2020/12/20 01:57:12;;;;;;;23.42;18.30;;;6.50;99.90;;;;;;5105170;28;20215;-78
2020/12/20 01:59:38;;;;;;;22.20;17.67;;;6.50;99.90;;;;;;5114176;28;20231;-81
2020/12/20 02:02:05;;;;;;;21.77;17.30;;;6.50;99.50;;;;;;5109522;28;20231;-81
2020/12/20 02:04:32;;;;;;;23.13;18.25;;;6.50;99.40;;;;;;5104994;28;20250;-81
2020/12/20 02:07:00;;;;;;;26.38;19.40;;;6.60;99.10;;;;;;5105906;28;20251;-80
2020/12/20 02:09:27;;;;;;;21.52;16.67;;;6.40;98.90;;;;;;5100343;28;20320;-80
2020/12/20 02:12:00;;;;;;;23.23;16.77;;;6.50;99.00;;;;;;5099764;28;20270;-80
2020/12/20 02:14:27;;;;;;;17.25;14.90;;;6.40;99.00;;;;;;5097531;28;20264;-80
2020/12/20 02:16:53;;;;;;;23.25;17.30;;;6.50;98.40;;;;;;5096844;28;20601;-80
2020/12/20 02:19:20;;;;;;;17.88;15.27;;;6.40;97.50;;;;;;5097521;28;20285;-80
2020/12/20 02:21:48;;;;;;;20.00;16.25;;;6.30;97.40;;;;;;5098813;28;20209;-80
2020/12/20 02:24:15;;;;;;;19.05;16.02;;;6.20;98.10;;;;;;5098619;28;20252;-80
2020/12/20 02:26:41;;;;;;;19.50;15.50;;;6.30;98.70;;;;;;5096359;28;20266;-80
2020/12/20 02:29:07;;;;;;;20.85;15.95;;;6.20;98.90;;;;;;5096808;28;20223;-80
2020/12/20 02:31:34;;;;;;;24.33;16.55;;;6.30;99.20;;;;;;5099768;28;20493;-81
2020/12/20 02:34:01;;;;;;;18.95;15.07;;;6.40;99.50;;;;;;5100411;28;20218;-79
2020/12/20 02:36:28;;;;;;;20.83;16.02;;;6.40;99.40;;;;;;5099515;28;20273;-80
2020/12/20 02:38:56;;;;;;;18.80;14.93;;;6.60;99.50;;;;;;5101122;28;20252;-81
2020/12/20 02:41:22;;;;;;;20.05;15.95;;;6.60;99.50;;;;;;5101477;28;20599;-80
2020/12/20 02:43:49;;;;;;;16.75;14.52;;;6.70;99.30;;;;;;5101244;28;20235;-80
2020/12/20 02:46:16;;;;;;;22.05;16.65;;;6.80;98.70;;;;;;5102663;28;20234;-81
2020/12/20 02:48:43;;;;;;;20.30;15.32;;;6.50;97.90;;;;;;5102683;28;20193;-82
2020/12/20 02:51:10;;;;;;;20.65;15.77;;;6.60;98.30;;;;;;5103382;28;20194;-82
2020/12/20 02:53:36;;;;;;;19.35;15.60;;;6.60;98.40;;;;;;5101051;28;20246;-80
2020/12/20 02:56:04;;;;;;;18.48;15.00;;;6.50;98.30;;;;;;5101876;28;20203;-81
2020/12/20 02:58:30;;;;;;;17.80;14.32;;;6.40;98.70;;;;;;5103088;28;20222;-81
2020/12/20 03:00:59;;;;;;;16.58;14.73;;;6.40;98.80;;;;;;5113005;28;20201;-81
2020/12/20 03:03:26;;;;;;;19.27;14.25;;;6.50;99.00;;;;;;5113158;28;20223;-82
2020/12/20 03:05:52;;;;;;;16.83;15.02;;;6.50;99.00;;;;;;5113389;28;20214;-81
2020/12/20 03:08:22;;;;;;;19.05;15.38;;;6.60;98.90;;;;;;5113423;28;20199;-81
2020/12/20 03:10:48;;;;;;;17.67;15.48;;;6.60;99.10;;;;;;5114518;28;20202;-81
2020/12/20 03:13:16;;;;;;;20.17;15.68;;;6.70;98.80;;;;;;5115131;28;20195;-82
2020/12/20 03:15:43;;;;;;;16.38;14.68;;;6.70;98.40;;;;;;5114204;28;20218;-81
2020/12/20 03:18:10;;;;;;;18.63;14.75;;;6.70;98.20;;;;;;5114221;28;20310;-83
2020/12/20 03:20:36;;;;;;;16.60;14.77;;;6.70;98.10;;;;;;5113999;28;20601;-81
2020/12/20 03:23:04;;;;;;;18.65;15.30;;;6.70;97.90;;;;;;5113384;28;20225;-81
2020/12/20 03:25:31;;;;;;;16.23;14.55;;;6.70;97.90;;;;;;5112431;28;20239;-81
2020/12/20 03:27:57;;;;;;;19.85;14.30;;;6.70;97.90;;;;;;5105187;28;20203;-81
2020/12/20 03:30:26;;;;;;;16.10;13.30;;;6.70;98.00;;;;;;5109135;28;20226;-80
2020/12/20 03:32:53;;;;;;;20.27;15.60;;;6.70;98.20;;;;;;5107993;28;20199;-80
2020/12/20 03:35:20;;;;;;;14.18;12.77;;;6.70;98.30;;;;;;5106703;28;20232;-80
2020/12/20 03:37:50;;;;;;;16.90;14.23;;;6.80;98.40;;;;;;5109637;28;20199;-80
2020/12/20 03:40:18;;;;;;;16.80;13.73;;;6.80;98.50;;;;;;5115506;28;20260;-81
2020/12/20 03:42:46;;;;;;;18.05;15.07;;;6.70;98.50;;;;;;5116859;28;20202;-81
2020/12/20 03:45:13;;;;;;;15.85;13.15;;;6.80;98.70;;;;;;5116185;28;20217;-82
2020/12/20 03:47:41;;;;;;;18.98;13.98;;;6.80;98.70;;;;;;5115467;28;20212;-81
2020/12/20 03:50:07;;;;;;;14.48;12.93;;;6.90;98.50;;;;;;5115193;28;20229;-81
2020/12/20 03:52:34;;;;;;;16.73;13.63;;;6.80;98.40;;;;;;5102243;28;20277;-80
2020/12/20 03:55:00;;;;;;;17.27;13.75;;;6.90;98.20;;;;;;5101439;28;20206;-80
2020/12/20 03:57:27;;;;;;;15.82;13.13;;;6.90;98.50;;;;;;5101827;28;20203;-81
2020/12/20 03:59:53;;;;;;;17.02;13.98;;;7.00;98.40;;;;;;5112402;28;20202;-81
2020/12/20 04:02:20;;;;;;;16.75;14.90;;;7.00;98.30;;;;;;5119092;28;20233;-81
2020/12/20 04:04:48;;;;;;;18.30;14.73;;;7.00;98.00;;;;;;5119186;28;20254;-81
2020/12/20 04:07:14;;;;;;;16.63;14.50;;;7.00;98.00;;;;;;5119132;28;20264;-81
2020/12/20 04:09:42;;;;;;;22.33;16.40;;;7.00;98.10;;;;;;5119283;28;20222;-80
2020/12/20 04:12:09;;;;;;;20.05;15.50;;;7.00;98.30;;;;;;5117868;28;20203;-81
2020/12/20 04:14:35;;;;;;;21.58;17.73;;;7.00;98.60;;;;;;5116698;28;20228;-80
2020/12/20 04:17:02;;;;;;;18.38;16.50;;;7.00;98.50;;;;;;5107122;28;20214;-81
2020/12/20 04:19:28;;;;;;;21.15;16.55;;;7.00;98.60;;;;;;5110733;28;20693;-81
2020/12/20 04:21:56;;;;;;;22.15;16.77;;;7.00;98.90;;;;;;5117885;28;20371;-82
2020/12/20 04:24:22;;;;;;;19.23;16.33;;;7.00;99.00;;;;;;5119114;28;20226;-81
2020/12/20 04:26:49;;;;;;;19.85;17.42;;;7.00;98.90;;;;;;5119793;28;20182;-81
2020/12/20 04:29:15;;;;;;;19.55;16.95;;;7.00;98.90;;;;;;5118320;28;20238;-81
2020/12/20 04:31:42;;;;;;;20.02;17.90;;;7.00;99.30;;;;;;5117680;28;20215;-80
2020/12/20 04:34:09;;;;;;;21.90;18.25;;;6.90;99.40;;;;;;5109886;28;20229;-81
2020/12/20 04:36:35;;;;;;;21.75;17.13;;;6.90;99.70;;;;;;5107676;28;20206;-80
2020/12/20 04:39:03;;;;;;;23.38;19.17;;;6.60;99.90;;;;;;5107678;28;20246;-81
2020/12/20 04:41:30;;;;;;;21.60;19.30;;;6.50;99.90;;;;;;5106363;28;20210;-82
2020/12/20 04:43:56;;;;;;;23.50;17.85;;;6.50;99.90;;;;;;5107796;28;20610;-79
2020/12/20 04:46:26;;;;;;;23.55;19.30;;;6.60;99.90;;;;;;5106912;28;20203;-81
2020/12/20 04:48:53;;;;;;;23.35;18.30;;;6.60;99.90;;;;;;5108439;28;20243;-81
2020/12/20 04:51:21;;;;;;;21.55;18.05;;;6.50;99.90;;;;;;5109794;28;20206;-81
2020/12/20 04:53:50;;;;;;;19.40;17.40;;;6.40;99.90;;;;;;5110969;28;20210;-81
2020/12/20 04:56:19;;;;;;;23.83;19.40;;;6.50;99.90;;;;;;5117354;28;20209;-80
2020/12/20 04:58:46;;;;;;;24.08;18.58;;;6.50;99.90;;;;;;5116864;28;20220;-81
2020/12/20 05:01:13;;;;;;;22.30;17.55;;;6.60;99.90;;;;;;5117091;28;20274;-83
2020/12/20 05:03:40;;;;;;;27.95;18.65;;;6.50;99.90;;;;;;5118618;28;20305;-83
2020/12/20 05:06:07;;;;;;;24.73;18.20;;;6.40;99.90;;;;;;5116586;28;20213;-82
2020/12/20 05:08:34;;;;;;;21.33;18.40;;;6.40;99.90;;;;;;5109022;28;20238;-82
2020/12/20 05:11:00;;;;;;;20.25;17.75;;;6.30;99.90;;;;;;5113217;28;20201;-83
2020/12/20 05:13:40;;;;;;;21.40;19.15;;;6.40;99.90;;;;;;5118344;28;20199;-82
2020/12/20 05:16:06;;;;;;;20.00;17.02;;;6.50;99.90;;;;;;5113022;28;20605;-80
2020/12/20 05:18:33;;;;;;;18.50;16.63;;;6.60;99.90;;;;;;5108254;28;20658;-80
2020/12/20 05:20:59;;;;;;;21.20;17.25;;;6.60;99.90;;;;;;5112006;28;20206;-81
2020/12/20 05:23:30;;;;;;;23.95;17.33;;;6.70;99.90;;;;;;5105802;28;20218;-82
2020/12/20 05:26:06;;;;;;;17.92;15.65;;;6.80;99.90;;;;;;5102547;28;20678;-81
2020/12/20 05:28:33;;;;;;;17.63;15.10;;;6.80;99.90;;;;;;5104270;28;20261;-81
2020/12/20 05:31:08;;;;;;;16.95;15.15;;;6.70;99.90;;;;;;5107753;28;20200;-81
2020/12/20 05:33:37;;;;;;;17.38;15.65;;;6.80;99.90;;;;;;5112253;28;20201;-82
2020/12/20 05:36:06;;;;;;;19.23;15.82;;;6.80;99.90;;;;;;5107408;28;20294;-80
2020/12/20 05:38:33;;;;;;;18.35;15.25;;;6.80;99.90;;;;;;5112623;28;20347;-82
2020/12/20 05:40:59;;;;;;;19.60;15.80;;;6.70;99.90;;;;;;5115330;28;20240;-82
2020/12/20 05:43:27;;;;;;;20.08;16.83;;;6.70;99.90;;;;;;5113468;28;20203;-82
2020/12/20 05:45:55;;;;;;;18.33;15.18;;;6.70;99.90;;;;;;5108693;28;20207;-82
2020/12/20 05:48:24;;;;;;;19.30;16.15;;;6.70;99.90;;;;;;5107305;28;20246;-81
2020/12/20 05:50:53;;;;;;;19.55;16.05;;;6.80;99.90;;;;;;5107331;28;20216;-80
2020/12/20 05:53:25;;;;;;;21.63;17.02;;;6.80;99.90;;;;;;5106142;28;20207;-83
2020/12/20 05:55:51;;;;;;;17.70;15.88;;;6.90;99.90;;;;;;5109185;28;20199;-82
2020/12/20 05:58:18;;;;;;;19.33;16.80;;;6.80;99.90;;;;;;5111043;28;20266;-81
2020/12/20 06:00:46;;;;;;;20.48;15.70;;;6.90;99.90;;;;;;5110342;28;20250;-82
2020/12/20 06:03:13;;;;;;;18.08;16.02;;;7.00;99.90;;;;;;5110104;28;20199;-82
2020/12/20 06:05:41;;;;;;;17.80;15.60;;;7.00;99.90;;;;;;5111828;28;20267;-82
2020/12/20 06:08:10;;;;;;;17.20;14.80;;;7.00;99.90;;;;;;5112875;28;20239;-82
2020/12/20 06:10:42;;;;;;;16.58;14.38;;;7.10;99.90;;;;;;5110128;28;20280;-80
2020/12/20 06:13:10;;;;;;;16.58;14.98;;;7.10;99.90;;;;;;5110242;28;20259;-82
2020/12/20 06:15:39;;;;;;;18.35;13.98;;;7.10;99.90;;;;;;5116513;28;20206;-82
2020/12/20 06:18:11;;;;;;;17.13;13.82;;;7.10;99.90;;;;;;5117871;28;20233;-83
2020/12/20 06:20:51;;;;;;;18.13;15.00;;;7.10;99.90;;;;;;5117996;28;20230;-84
2020/12/20 06:23:23;;;;;;;18.55;14.15;;;7.10;99.90;;;;;;5117106;28;20243;-84
2020/12/20 06:25:51;;;;;;;16.88;13.45;;;7.20;99.90;;;;;;5117392;28;20207;-82
2020/12/20 06:28:22;;;;;;;17.80;14.70;;;7.10;99.90;;;;;;5116628;28;20217;-81
2020/12/20 06:30:49;;;;;;;17.98;14.45;;;6.90;99.90;;;;;;5117085;28;20226;-82
2020/12/20 06:33:27;;;;;;;17.70;14.77;;;6.70;99.90;;;;;;5118166;28;20280;-83
2020/12/20 06:35:55;;;;;;;17.63;14.90;;;6.70;99.90;;;;;;5117864;28;20205;-84
2020/12/20 06:38:24;;;;;;;17.75;15.80;;;6.60;99.90;;;;;;5118057;28;20201;-82
2020/12/20 06:40:52;;;;;;;18.52;16.63;;;6.60;99.90;;;;;;5116873;28;20229;-83
2020/12/20 06:43:29;;;;;;;21.42;16.30;;;6.50;99.90;;;;;;5115380;28;20463;-82
2020/12/20 06:45:56;;;;;;;19.88;16.00;;;6.50;99.90;;;;;;5115540;28;20197;-83
2020/12/20 06:48:34;;;;;;;16.25;14.00;;;6.60;99.90;;;;;;5116154;28;20198;-82
2020/12/20 06:51:03;;;;;;;18.90;15.18;;;6.70;99.90;;;;;;5114553;28;20190;-82
2020/12/20 06:53:49;;;;;;;15.65;13.25;;;6.70;99.90;;;;;;5113925;28;20226;-82
2020/12/20 06:56:16;;;;;;;15.93;13.77;;;6.80;99.90;;;;;;5093235;28;20206;-81
2020/12/20 06:58:43;;;;;;;23.00;16.75;;;6.80;99.90;;;;;;5103465;28;20210;-83
2020/12/20 07:01:10;;;;;;;24.13;17.20;;;6.80;99.90;;;;;;5102904;28;20712;-82
2020/12/20 07:03:42;;;;;;;18.70;16.00;;;6.80;99.90;;;;;;5102787;28;20238;-82
2020/12/20 07:06:17;;;;;;;17.52;15.13;;;6.80;99.90;;;;;;5103643;28;20776;-82
2020/12/20 07:08:54;;;;;;;15.80;14.30;;;6.90;99.90;;;;;;5102972;28;20300;-82
2020/12/20 07:11:22;;;;;;;16.20;13.98;;;6.90;99.90;;;;;;5102216;28;20209;-82
2020/12/20 07:13:51;;;;;;;15.05;13.48;;;6.90;99.90;;;;;;5101933;28;20226;-83
2020/12/20 07:16:19;;;;;;;15.40;13.40;;;7.00;99.90;;;;;;5101812;28;20218;-82
2020/12/20 07:18:56;;;;;;;17.17;13.95;;;7.00;99.90;;;;;;5105677;28;20300;-82
2020/12/20 07:21:55;;;;;;;15.95;13.88;;;7.10;99.90;;;;;;5107086;28;20182;-81
2020/12/20 07:24:23;;;;;;;15.93;14.32;;;7.10;99.90;;;;;;5107634;28;20334;-82
2020/12/20 07:26:51;;;;;;;17.38;14.68;;;7.20;99.90;;;;;;5107466;28;20203;-81
2020/12/20 07:29:18;;;;;;;16.85;14.07;;;7.20;99.90;;;;;;5107769;28;20219;-82
2020/12/20 07:31:45;;;;;;;16.88;15.07;;;7.20;99.90;;;;;;5110826;28;20200;-82
2020/12/20 07:34:12;;;;;;;15.10;13.45;;;7.30;99.90;;;;;;5111772;28;20212;-84
2020/12/20 07:36:39;;;;;;;16.00;13.88;;;7.30;99.90;;;;;;5112060;28;20221;-81
2020/12/20 07:39:07;;;;;;;16.52;12.90;;;7.20;99.90;;;;;;5110381;28;20516;-82
2020/12/20 07:41:35;;;;;;;14.65;12.98;;;7.20;99.90;;;;;;5114219;28;20197;-82
2020/12/20 07:44:05;;;;;;;16.92;13.45;;;7.30;99.90;;;;;;5114743;28;20291;-81
2020/12/20 07:46:32;;;;;;;15.95;14.25;;;7.30;99.90;;;;;;5111435;28;20203;-81
2020/12/20 07:49:03;;;;;;;19.73;13.68;;;7.10;99.90;;;;;;5111057;28;20253;-81
2020/12/20 07:51:30;;;;;;;17.48;14.20;;;7.10;99.90;;;;;;5112243;28;20606;-81
2020/12/20 07:53:58;;;;;;;16.73;14.55;;;7.10;99.90;;;;;;5113432;28;20213;-81
2020/12/20 07:56:26;;;;;;;17.70;13.93;;;6.90;99.90;;;;;;5113835;28;20187;-82
2020/12/20 07:58:54;;;;;;;17.80;14.70;;;6.80;99.90;;;;;;5113617;28;20233;-82
2020/12/20 08:01:22;;;;;;;17.10;13.60;;;6.70;99.90;;;;;;5112564;28;20281;-81
2020/12/20 08:03:48;;;;;;;16.80;13.73;;;6.80;99.90;;;;;;5114547;28;20197;-82
2020/12/20 08:06:16;;;;;;;15.95;12.38;;;6.90;99.90;;;;;;5114367;28;20581;-82
2020/12/20 08:08:44;;;;;;;16.65;13.15;;;7.00;99.90;;;;;;5112335;28;20260;-81
2020/12/20 08:11:19;;;;;;;15.90;12.43;;;7.10;99.90;;;;;;5115878;28;20405;-81
2020/12/20 08:13:54;;;;;;;16.63;13.68;;;7.00;99.90;;;;;;5114439;28;20227;-80
2020/12/20 08:16:25;;;;;;;15.93;13.43;;;7.10;99.90;;;;;;5115626;28;20188;-81
2020/12/20 08:18:57;;;;;;;18.50;14.18;;;7.20;99.90;;;;;;5114982;28;20255;-81
2020/12/20 08:21:44;;;;;;;14.07;12.52;;;7.30;99.90;;;;;;5107103;28;20629;-80
2020/12/20 08:24:12;;;;;;;14.32;12.20;;;7.40;99.90;;;;;;5106767;28;20242;-79
2020/12/20 08:26:39;;;;;;;19.17;14.02;;;7.40;99.90;;;;;;5111621;28;20206;-81
2020/12/20 08:29:07;;;;;;;14.75;12.70;;;7.40;99.90;;;;;;5111375;28;20321;-81
2020/12/20 08:31:34;;;;;;;17.80;12.75;;;7.50;99.90;;;;;;5112643;28;20211;-82
2020/12/20 08:34:02;;;;;;;21.70;14.38;;;7.50;99.90;;;;;;5112243;28;20242;-80
2020/12/20 08:36:28;;;;;;;16.88;13.65;;;7.50;99.60;;;;;;5106596;28;20196;-81
2020/12/20 08:38:55;;;;;;;15.82;13.60;;;7.30;99.90;;;;;;5110321;28;20223;-81
2020/12/20 08:41:24;;;;;;;17.48;13.57;;;7.40;99.90;;;;;;5110127;28;20195;-81
2020/12/20 08:44:05;;;;;;;15.07;13.25;;;7.30;99.90;;;;;;5109855;28;20214;-79
2020/12/20 08:46:35;;;;;;;16.20;13.70;;;7.40;99.90;;;;;;5108434;28;20195;-81
2020/12/20 08:49:12;;;;;;;17.13;13.25;;;7.50;99.70;;;;;;5111447;28;20231;-81
2020/12/20 08:51:39;;;;;;;15.35;12.35;;;7.20;98.90;;;;;;5107476;28;20203;-81
2020/12/20 08:54:06;;;;;;;15.95;12.70;;;7.20;99.90;;;;;;5109455;28;20199;-81
2020/12/20 08:56:33;;;;;;;19.90;14.45;;;7.30;99.90;;;;;;5108583;28;20233;-81
2020/12/20 08:59:00;;;;;;;16.55;13.38;;;7.30;99.90;;;;;;5111530;28;20257;-81
2020/12/20 09:01:40;;;;;;;19.08;13.45;;;7.40;99.90;;;;;;5111068;28;20206;-84
2020/12/20 09:04:11;;;;;;;13.82;11.98;;;7.50;99.90;;;;;;5115414;28;20242;-80
2020/12/20 09:06:38;;;;;;;19.75;14.18;;;7.70;99.90;;;;;;5115688;28;20197;-82
2020/12/20 09:09:13;;;;;;;15.20;13.10;;;7.80;99.90;;;;;;5113603;28;20843;-81
2020/12/20 09:11:40;;;;;;;18.60;12.82;;;7.90;99.80;;;;;;5110936;28;20199;-80
2020/12/20 09:14:10;;;;;;;13.82;12.38;;;8.10;99.30;;;;;;5108933;28;20207;-80
2020/12/20 09:16:41;;;;;;;19.77;13.07;;;8.20;98.20;;;;;;5112841;28;20201;-83
2020/12/20 09:19:11;;;;;;;16.80;12.80;;;8.20;97.40;;;;;;5117380;28;20250;-81
2020/12/20 09:21:37;;;;;;;13.75;11.60;;;8.20;96.80;;;;;;5116850;28;20208;-83
2020/12/20 09:24:04;;;;;;;14.05;12.60;;;8.40;96.50;;;;;;5115219;28;20228;-83
2020/12/20 09:26:30;;;;;;;16.65;13.60;;;8.40;96.20;;;;;;5115479;28;20225;-82
2020/12/20 09:28:57;;;;;;;14.77;12.73;;;8.50;95.90;;;;;;5110089;28;20238;-82
2020/12/20 09:31:27;;;;;;;13.45;12.05;;;8.50;95.60;;;;;;5104666;28;20207;-80
2020/12/20 09:33:58;;;;;;;14.10;12.60;;;8.60;95.00;;;;;;5104057;28;20575;-81
2020/12/20 09:36:27;;;;;;;15.63;13.13;;;8.30;95.00;;;;;;5105818;28;20214;-80
2020/12/20 09:38:55;;;;;;;16.23;12.52;;;8.50;95.80;;;;;;5106835;28;20267;-80
2020/12/20 09:41:23;;;;;;;16.70;13.35;;;8.60;96.00;;;;;;5107231;28;20211;-81
2020/12/20 09:43:51;;;;;;;18.23;14.75;;;8.80;95.80;;;;;;5103330;28;20698;-80
2020/12/20 09:46:20;;;;;;;14.45;12.70;;;8.90;95.30;;;;;;5103330;28;20647;-80
2020/12/20 09:48:47;;;;;;;14.10;12.25;;;9.10;95.00;;;;;;5101063;28;20253;-80
2020/12/20 09:51:13;;;;;;;14.88;12.30;;;9.20;94.40;;;;;;5103304;28;20236;-80
2020/12/20 09:53:41;;;;;;;15.43;11.55;;;9.30;93.60;;;;;;5103650;28;20203;-80
2020/12/20 09:56:07;;;;;;;15.32;11.85;;;9.30;92.90;;;;;;5103721;28;20210;-80
2020/12/20 09:58:34;;;;;;;12.93;11.15;;;9.30;92.50;;;;;;5101856;28;20279;-80
2020/12/20 10:01:01;;;;;;;14.88;11.45;;;9.30;91.70;;;;;;5102412;28;20263;-80
2020/12/20 10:03:28;;;;;;;13.35;11.60;;;9.30;91.40;;;;;;5101765;28;20246;-80
2020/12/20 10:05:57;;;;;;;15.90;12.05;;;9.10;91.20;;;;;;5103663;28;20239;-80
2020/12/20 10:08:25;;;;;;;14.73;12.32;;;9.00;92.00;;;;;;5106277;28;20260;-81
2020/12/20 10:10:53;;;;;;;18.80;12.27;;;9.10;92.80;;;;;;5104824;28;20208;-81
2020/12/20 10:13:20;;;;;;;15.85;12.35;;;9.30;92.60;;;;;;5109707;28;20195;-81
2020/12/20 10:15:46;;;;;;;13.88;11.25;;;9.30;92.20;;;;;;5111146;28;20223;-81
2020/12/20 10:18:13;;;;;;;13.60;12.13;;;9.50;91.90;;;;;;5115131;28;20213;-80
2020/12/20 10:20:39;;;;;;;13.35;11.77;;;9.50;91.50;;;;;;5116612;28;20249;-81
2020/12/20 10:23:06;;;;;;;13.52;12.15;;;9.60;91.60;;;;;;5115893;28;20200;-81
2020/12/20 10:25:33;;;;;;;16.45;12.73;;;9.50;91.50;;;;;;5111744;28;20227;-80
2020/12/20 10:28:01;;;;;;;15.27;12.88;;;9.60;91.80;;;;;;5115976;28;20203;-81
2020/12/20 10:30:27;;;;;;;15.82;12.45;;;9.80;91.60;;;;;;5117897;28;20215;-81
2020/12/20 10:32:55;;;;;;;13.25;11.95;;;9.90;90.90;;;;;;5118328;28;20220;-81
2020/12/20 10:35:24;;;;;;;15.60;12.13;;;9.90;90.00;;;;;;5117857;28;20188;-80
2020/12/20 10:37:52;;;;;;;12.95;11.55;;;10.00;88.20;;;;;;5115524;28;20210;-81
2020/12/20 10:48:05;;;;;;;13.80;11.80;;;10.30;85.00;;;;;;5895385;22;20260;-81
2020/12/20 10:50:32;;;;;;;14.43;12.60;;;10.20;84.90;;;;;;5054955;28;20202;-81
2020/12/20 10:52:58;;;;;;;14.52;12.50;;;10.20;84.90;;;;;;5052913;28;20209;-82
2020/12/20 10:55:24;;;;;;;14.25;12.60;;;10.00;84.70;;;;;;5054323;28;20196;-83
2020/12/20 10:57:51;;;;;;;14.18;12.70;;;9.90;87.80;;;;;;5051632;28;20229;-83
2020/12/20 11:00:17;;;;;;;14.90;11.75;;;9.90;88.80;;;;;;5054044;28;20194;-81
2020/12/20 11:02:44;;;;;;;15.15;12.57;;;9.90;89.50;;;;;;5045958;28;20211;-82
2020/12/20 11:08:13;;;;;;;15.60;11.15;;;10.20;88.20;;;;;;5042451;28;20498;-83
2020/12/20 11:10:40;;;;;;;15.55;11.90;;;10.20;86.90;;;;;;5041415;28;20228;-81
2020/12/20 11:13:06;;;;;;;17.02;13.18;;;10.30;86.30;;;;;;5040067;28;20196;-81
2020/12/20 11:15:36;;;;;;;14.55;10.60;;;10.20;85.90;;;;;;5043851;28;20398;-82
2020/12/20 11:18:02;;;;;;;13.95;12.18;;;10.40;85.00;;;;;;5039066;28;20283;-81
2020/12/20 11:20:31;;;;;;;15.90;11.65;;;10.60;84.60;;;;;;5039932;28;20217;-80
2020/12/20 11:23:04;;;;;;;13.32;11.40;;;10.30;84.50;;;;;;5039905;28;20207;-81
2020/12/20 11:25:30;;;;;;;14.15;11.82;;;10.20;84.90;;;;;;5050001;28;20231;-80
2020/12/20 11:27:57;;;;;;;14.73;12.40;;;10.30;85.00;;;;;;5053947;28;20210;-82
2020/12/20 11:30:24;;;;;;;13.45;12.00;;;10.40;85.10;;;;;;5055626;28;20202;-81
2020/12/20 11:32:50;;;;;;;15.13;12.90;;;10.40;84.70;;;;;;5054639;28;20234;-81
2020/12/20 11:35:16;;;;;;;14.73;11.65;;;10.30;85.00;;;;;;5054496;28;20213;-82
2020/12/20 11:37:46;;;;;;;15.55;11.70;;;10.20;84.90;;;;;;5054945;28;20417;-82
2020/12/20 11:40:12;;;;;;;13.13;11.77;;;10.20;85.80;;;;;;5055864;28;20199;-82
2020/12/20 11:42:39;;;;;;;11.93;10.77;;;10.20;86.90;;;;;;5054955;28;20197;-82
2020/12/20 11:45:05;;;;;;;15.65;12.13;;;10.20;87.80;;;;;;5050460;28;20228;-81
2020/12/20 11:47:32;;;;;;;14.43;11.52;;;10.20;87.80;;;;;;5046248;28;20208;-81
2020/12/20 11:49:58;;;;;;;12.95;11.60;;;10.20;87.70;;;;;;5040989;28;20273;-81
2020/12/20 11:52:47;;;;;;;13.90;11.73;;;10.10;88.00;;;;;;5038531;28;20661;-84
2020/12/20 11:55:13;;;;;;;13.02;10.88;;;10.20;87.80;;;;;;5039323;28;20293;-84
2020/12/20 11:57:40;;;;;;;15.43;12.50;;;10.10;88.50;;;;;;5039555;28;20213;-81
2020/12/20 12:00:06;;;;;;;15.40;11.57;;;10.20;89.10;;;;;;5037040;28;20206;-82
2020/12/20 12:02:33;;;;;;;16.80;11.18;;;10.20;88.90;;;;;;5040507;28;20233;-83
2020/12/20 12:04:59;;;;;;;15.68;12.45;;;10.40;89.00;;;;;;5037939;28;20234;-80
2020/12/20 12:07:26;;;;;;;15.35;12.80;;;10.40;88.30;;;;;;5040232;28;20663;-80
2020/12/20 12:09:53;;;;;;;13.07;11.50;;;10.50;87.60;;;;;;5041731;28;20639;-82
2020/12/20 12:12:20;;;;;;;12.10;10.80;;;10.50;86.60;;;;;;5039879;28;20272;-82
2020/12/20 12:14:47;;;;;;;17.67;11.98;;;10.50;86.50;;;;;;5044301;28;20209;-82
2020/12/20 12:17:16;;;;;;;12.65;10.70;;;10.40;86.30;;;;;;5045041;28;20198;-82
2020/12/20 12:19:43;;;;;;;12.60;11.00;;;10.30;87.10;;;;;;5044593;28;20280;-83
2020/12/20 12:22:12;;;;;;;13.55;12.00;;;10.30;87.90;;;;;;5059404;28;20217;-81
2020/12/20 12:24:39;;;;;;;16.50;11.93;;;10.40;88.20;;;;;;5059865;28;20236;-84
2020/12/20 12:27:10;;;;;;;13.85;10.32;;;10.20;88.20;;;;;;5057910;28;20237;-82
2020/12/20 12:29:38;;;;;;;12.90;11.50;;;10.10;90.10;;;;;;5060329;28;20322;-81
2020/12/20 12:32:04;;;;;;;14.20;11.13;;;10.20;90.60;;;;;;5060275;28;20229;-82
2020/12/20 12:34:31;;;;;;;11.55;10.23;;;10.20;91.00;;;;;;5060477;28;20212;-83
2020/12/20 12:37:01;;;;;;;16.15;11.13;;;10.20;91.00;;;;;;5060490;28;20222;-81
2020/12/20 12:39:28;;;;;;;13.63;11.00;;;10.20;91.30;;;;;;5174560;22;20234;-82
2020/12/20 12:41:56;;;;;;;17.40;12.70;;;10.20;91.30;;;;;;5060527;28;20198;-83
2020/12/20 12:44:24;;;;;;;18.98;12.10;;;10.10;91.30;;;;;;5060322;28;20212;-82
2020/12/20 12:52:02;;;;;;;14.00;12.00;;;9.70;95.50;;;;;;5847121;22;20303;-80
2020/12/20 12:54:29;;;;;;;16.90;13.85;;;9.60;96.40;;;;;;5045108;28;20210;-80
2020/12/20 12:56:57;;;;;;;16.95;12.90;;;9.60;97.40;;;;;;5044923;28;20270;-81
2020/12/20 12:59:25;;;;;;;15.40;13.02;;;9.60;98.00;;;;;;5047259;28;20210;-81